首页
METAR-TAF:

METAR-TAF

机场 :

艾爾帕索, 得克萨斯州, 美国

纬度: 31-48-40N, 经度: 106-22-33W, 海拔: 1206米

当前天气观测

该预报发布于15分钟前的23:51 UTC
风速4节,风向多变
温度 37°C
湿度 15%
气压 1014 hPa
能見度: 16.1公里
少量云层高于10000英尺

METAR: KELP 152351Z VRB04KT 10SM FEW100 37/06 A2994 RMK AO2 SLP054 T03670056 10383 20328 56027

时间: 19:06 (00:06 UTC)

预报

该预报发布于33分钟前的23:33 UTC
预报有效从16日的 00点(UTC)到 16日的 24点(UTC)
风速6节,风向多变
能見度: 10公里
散云层高于10000英尺
从 16日的 0500点(UTC)
风速5节,风向东南
能見度: 10公里
天空无云
从 16日的 1900点(UTC)
风速7节,风向南转南东
能見度: 10公里
散云层高于10000英尺

TAF: KELP 152333Z 1600/1624 VRB06KT P6SM SCT100 FM160500 14005KT P6SM SKC FM161900 15007KT P6SM SCT100

超过4000个机场的气象观测和天气预报(METAR&TAF报告)。

可查询的气象台以黄色和红色小点在地图上表示。

将鼠标移到小点上方,可查看气象台名称。

然后点击查看天气观测和预报。

如需切换地图:点击带黑十字的绿色按钮放大地图;点击带横线的绿色按钮缩小地图;或者点击绿色箭头查看邻近地区的地图。


METAR-TAF: